sensor_id;sensor_type;location;lat;lon;timestamp;temperature;humidity
7784;DHT22;19359;51.402;6.778;2022-11-25T00:00:47;8.10;1.00
7784;DHT22;19359;51.402;6.778;2022-11-25T00:03:14;8.00;1.00
7784;DHT22;19359;51.402;6.778;2022-11-25T00:05:40;8.00;1.00
7784;DHT22;19359;51.402;6.778;2022-11-25T00:08:07;8.00;1.00
7784;DHT22;19359;51.402;6.778;2022-11-25T00:10:34;8.10;1.00
7784;DHT22;19359;51.402;6.778;2022-11-25T00:13:00;8.10;1.00
7784;DHT22;19359;51.402;6.778;2022-11-25T00:15:29;8.20;1.00
7784;DHT22;19359;51.402;6.778;2022-11-25T00:17:56;8.20;1.00
7784;DHT22;19359;51.402;6.778;2022-11-25T00:20:22;8.20;1.00
7784;DHT22;19359;51.402;6.778;2022-11-25T00:22:49;8.20;1.00
7784;DHT22;19359;51.402;6.778;2022-11-25T00:25:16;8.00;1.00
7784;DHT22;19359;51.402;6.778;2022-11-25T00:27:43;8.60;1.00
7784;DHT22;19359;51.402;6.778;2022-11-25T00:30:10;8.20;1.00
7784;DHT22;19359;51.402;6.778;2022-11-25T00:32:38;8.00;1.00
7784;DHT22;19359;51.402;6.778;2022-11-25T00:35:06;8.20;1.00
7784;DHT22;19359;51.402;6.778;2022-11-25T00:37:32;8.50;1.00
7784;DHT22;19359;51.402;6.778;2022-11-25T00:39:59;8.10;1.00
7784;DHT22;19359;51.402;6.778;2022-11-25T00:42:26;8.10;1.00
7784;DHT22;19359;51.402;6.778;2022-11-25T00:45:10;8.40;1.00
7784;DHT22;19359;51.402;6.778;2022-11-25T00:47:38;8.10;1.00
7784;DHT22;19359;51.402;6.778;2022-11-25T00:50:06;8.20;1.00
7784;DHT22;19359;51.402;6.778;2022-11-25T00:52:33;8.00;1.00
7784;DHT22;19359;51.402;6.778;2022-11-25T00:55:01;8.20;1.00
7784;DHT22;19359;51.402;6.778;2022-11-25T00:57:28;8.10;1.00
7784;DHT22;19359;51.402;6.778;2022-11-25T00:59:55;8.10;1.00
7784;DHT22;19359;51.402;6.778;2022-11-25T01:02:22;8.30;1.00
7784;DHT22;19359;51.402;6.778;2022-11-25T01:04:50;8.40;1.00
7784;DHT22;19359;51.402;6.778;2022-11-25T01:07:16;8.30;1.00
7784;DHT22;19359;51.402;6.778;2022-11-25T01:09:43;8.40;1.00
7784;DHT22;19359;51.402;6.778;2022-11-25T01:12:10;8.30;1.00
7784;DHT22;19359;51.402;6.778;2022-11-25T01:14:37;8.30;1.00
7784;DHT22;19359;51.402;6.778;2022-11-25T01:19:31;8.60;1.00
7784;DHT22;19359;51.402;6.778;2022-11-25T01:21:59;8.30;1.00
7784;DHT22;19359;51.402;6.778;2022-11-25T01:24:26;8.60;1.00
7784;DHT22;19359;51.402;6.778;2022-11-25T01:26:53;8.70;1.00
7784;DHT22;19359;51.402;6.778;2022-11-25T01:29:20;8.60;1.00
7784;DHT22;19359;51.402;6.778;2022-11-25T01:31:47;8.40;1.00
7784;DHT22;19359;51.402;6.778;2022-11-25T01:34:17;8.50;1.00
7784;DHT22;19359;51.402;6.778;2022-11-25T01:36:44;8.50;1.00
7784;DHT22;19359;51.402;6.778;2022-11-25T01:39:15;8.60;1.00
7784;DHT22;19359;51.402;6.778;2022-11-25T01:41:43;8.50;1.00
7784;DHT22;19359;51.402;6.778;2022-11-25T01:44:13;8.60;1.00
7784;DHT22;19359;51.402;6.778;2022-11-25T01:46:50;8.80;1.00
7784;DHT22;19359;51.402;6.778;2022-11-25T01:49:22;8.60;1.00
7784;DHT22;19359;51.402;6.778;2022-11-25T01:51:54;8.60;1.00
7784;DHT22;19359;51.402;6.778;2022-11-25T01:54:27;8.80;1.00
7784;DHT22;19359;51.402;6.778;2022-11-25T01:56:58;8.70;1.00
7784;DHT22;19359;51.402;6.778;2022-11-25T01:59:27;8.70;1.00
7784;DHT22;19359;51.402;6.778;2022-11-25T02:01:55;8.90;1.00
7784;DHT22;19359;51.402;6.778;2022-11-25T02:04:27;8.70;1.00
7784;DHT22;19359;51.402;6.778;2022-11-25T02:07:01;8.80;1.00
7784;DHT22;19359;51.402;6.778;2022-11-25T02:09:30;8.80;1.00
7784;DHT22;19359;51.402;6.778;2022-11-25T02:11:58;9.10;1.00
7784;DHT22;19359;51.402;6.778;2022-11-25T02:14:26;9.30;1.00
7784;DHT22;19359;51.402;6.778;2022-11-25T02:16:53;8.90;1.00
7784;DHT22;19359;51.402;6.778;2022-11-25T02:19:23;8.90;1.00
7784;DHT22;19359;51.402;6.778;2022-11-25T02:21:56;8.90;1.00
7784;DHT22;19359;51.402;6.778;2022-11-25T02:24:31;8.70;1.00
7784;DHT22;19359;51.402;6.778;2022-11-25T02:27:01;9.10;1.00
7784;DHT22;19359;51.402;6.778;2022-11-25T02:29:28;8.90;1.00
7784;DHT22;19359;51.402;6.778;2022-11-25T02:31:54;9.00;1.00
7784;DHT22;19359;51.402;6.778;2022-11-25T02:34:21;9.00;1.00
7784;DHT22;19359;51.402;6.778;2022-11-25T02:36:48;10.30;1.00
7784;DHT22;19359;51.402;6.778;2022-11-25T02:39:16;8.90;1.00
7784;DHT22;19359;51.402;6.778;2022-11-25T02:41:48;9.10;1.00
7784;DHT22;19359;51.402;6.778;2022-11-25T02:44:17;9.10;1.00
7784;DHT22;19359;51.402;6.778;2022-11-25T02:46:45;9.00;1.00
7784;DHT22;19359;51.402;6.778;2022-11-25T02:49:11;9.00;1.00
7784;DHT22;19359;51.402;6.778;2022-11-25T02:51:40;9.10;1.00
7784;DHT22;19359;51.402;6.778;2022-11-25T02:54:08;9.00;1.00
7784;DHT22;19359;51.402;6.778;2022-11-25T02:56:35;9.10;1.00
7784;DHT22;19359;51.402;6.778;2022-11-25T02:59:03;9.10;1.00
7784;DHT22;19359;51.402;6.778;2022-11-25T03:01:32;8.90;1.00
7784;DHT22;19359;51.402;6.778;2022-11-25T03:03:59;9.10;1.00
7784;DHT22;19359;51.402;6.778;2022-11-25T03:06:26;9.10;1.00
7784;DHT22;19359;51.402;6.778;2022-11-25T03:08:54;9.20;1.00
7784;DHT22;19359;51.402;6.778;2022-11-25T03:11:20;9.20;1.00
7784;DHT22;19359;51.402;6.778;2022-11-25T03:14:07;9.00;1.00
7784;DHT22;19359;51.402;6.778;2022-11-25T03:16:35;9.10;1.00
7784;DHT22;19359;51.402;6.778;2022-11-25T03:19:03;9.10;1.00
7784;DHT22;19359;51.402;6.778;2022-11-25T03:21:30;9.20;1.00
7784;DHT22;19359;51.402;6.778;2022-11-25T03:23:56;9.00;1.00
7784;DHT22;19359;51.402;6.778;2022-11-25T03:26:23;9.10;1.00
7784;DHT22;19359;51.402;6.778;2022-11-25T03:28:50;9.40;1.00
7784;DHT22;19359;51.402;6.778;2022-11-25T03:31:17;9.20;1.00
7784;DHT22;19359;51.402;6.778;2022-11-25T03:33:45;9.30;1.00
7784;DHT22;19359;51.402;6.778;2022-11-25T03:36:12;9.30;1.00
7784;DHT22;19359;51.402;6.778;2022-11-25T03:38:38;9.10;1.00
7784;DHT22;19359;51.402;6.778;2022-11-25T03:41:05;9.10;1.00
7784;DHT22;19359;51.402;6.778;2022-11-25T03:43:32;9.10;1.00
7784;DHT22;19359;51.402;6.778;2022-11-25T03:45:59;9.00;1.00
7784;DHT22;19359;51.402;6.778;2022-11-25T03:48:26;9.20;1.00
7784;DHT22;19359;51.402;6.778;2022-11-25T03:50:54;9.00;1.00
7784;DHT22;19359;51.402;6.778;2022-11-25T03:53:21;9.10;1.00
7784;DHT22;19359;51.402;6.778;2022-11-25T03:55:48;9.20;1.00
7784;DHT22;19359;51.402;6.778;2022-11-25T03:58:15;9.00;1.00
7784;DHT22;19359;51.402;6.778;2022-11-25T04:00:42;9.20;1.00
7784;DHT22;19359;51.402;6.778;2022-11-25T04:03:09;9.20;1.00
7784;DHT22;19359;51.402;6.778;2022-11-25T04:05:35;9.30;1.00
7784;DHT22;19359;51.402;6.778;2022-11-25T04:08:04;9.20;1.00
7784;DHT22;19359;51.402;6.778;2022-11-25T04:10:30;9.10;1.00
7784;DHT22;19359;51.402;6.778;2022-11-25T04:12:57;9.00;1.00
7784;DHT22;19359;51.402;6.778;2022-11-25T04:15:23;9.00;1.00
7784;DHT22;19359;51.402;6.778;2022-11-25T04:17:49;9.00;1.00
7784;DHT22;19359;51.402;6.778;2022-11-25T04:20:16;8.80;1.00
7784;DHT22;19359;51.402;6.778;2022-11-25T04:22:43;9.00;1.00
7784;DHT22;19359;51.402;6.778;2022-11-25T04:25:11;9.00;1.00
7784;DHT22;19359;51.402;6.778;2022-11-25T04:27:38;8.90;1.00
7784;DHT22;19359;51.402;6.778;2022-11-25T04:30:06;8.80;1.00
7784;DHT22;19359;51.402;6.778;2022-11-25T04:32:33;8.50;16.30
7784;DHT22;19359;51.402;6.778;2022-11-25T04:34:59;8.70;1.00
7784;DHT22;19359;51.402;6.778;2022-11-25T04:37:26;8.70;99.90
7784;DHT22;19359;51.402;6.778;2022-11-25T04:42:21;8.70;10.90
7784;DHT22;19359;51.402;6.778;2022-11-25T04:44:57;8.80;99.90
7784;DHT22;19359;51.402;6.778;2022-11-25T04:47:24;8.80;99.90
7784;DHT22;19359;51.402;6.778;2022-11-25T04:49:51;8.70;1.00
7784;DHT22;19359;51.402;6.778;2022-11-25T04:52:17;8.60;99.90
7784;DHT22;19359;51.402;6.778;2022-11-25T04:54:44;8.70;1.00
7784;DHT22;19359;51.402;6.778;2022-11-25T04:57:12;8.60;1.00
7784;DHT22;19359;51.402;6.778;2022-11-25T04:59:40;8.60;99.90
7784;DHT22;19359;51.402;6.778;2022-11-25T05:02:12;8.60;1.00
7784;DHT22;19359;51.402;6.778;2022-11-25T05:04:40;8.50;1.00
7784;DHT22;19359;51.402;6.778;2022-11-25T05:07:07;8.40;1.00
7784;DHT22;19359;51.402;6.778;2022-11-25T05:09:34;8.30;1.00
7784;DHT22;19359;51.402;6.778;2022-11-25T05:12:01;8.60;99.90
7784;DHT22;19359;51.402;6.778;2022-11-25T05:14:28;8.50;99.90
7784;DHT22;19359;51.402;6.778;2022-11-25T05:16:56;8.50;99.90
7784;DHT22;19359;51.402;6.778;2022-11-25T05:19:23;8.30;99.90
7784;DHT22;19359;51.402;6.778;2022-11-25T05:21:50;8.50;99.90
7784;DHT22;19359;51.402;6.778;2022-11-25T05:24:16;8.60;99.90
7784;DHT22;19359;51.402;6.778;2022-11-25T05:29:10;8.70;99.90
7784;DHT22;19359;51.402;6.778;2022-11-25T05:31:37;8.50;99.90
7784;DHT22;19359;51.402;6.778;2022-11-25T05:34:05;8.40;99.90
7784;DHT22;19359;51.402;6.778;2022-11-25T05:38:59;8.40;99.90
7784;DHT22;19359;51.402;6.778;2022-11-25T05:43:53;8.50;99.90
7784;DHT22;19359;51.402;6.778;2022-11-25T05:46:20;8.40;99.90
7784;DHT22;19359;51.402;6.778;2022-11-25T05:48:46;8.70;99.90
7784;DHT22;19359;51.402;6.778;2022-11-25T05:51:15;8.40;99.90
7784;DHT22;19359;51.402;6.778;2022-11-25T05:56:09;8.60;99.90
7784;DHT22;19359;51.402;6.778;2022-11-25T05:58:36;8.40;99.90
7784;DHT22;19359;51.402;6.778;2022-11-25T06:01:06;8.60;99.90
7784;DHT22;19359;51.402;6.778;2022-11-25T06:03:33;8.50;99.90
7784;DHT22;19359;51.402;6.778;2022-11-25T06:06:00;8.50;99.90
7784;DHT22;19359;51.402;6.778;2022-11-25T06:08:29;8.40;99.90
7784;DHT22;19359;51.402;6.778;2022-11-25T06:10:56;8.80;99.90
7784;DHT22;19359;51.402;6.778;2022-11-25T06:13:23;8.20;99.90
7784;DHT22;19359;51.402;6.778;2022-11-25T06:15:50;8.30;99.90
7784;DHT22;19359;51.402;6.778;2022-11-25T06:18:17;8.50;99.90
7784;DHT22;19359;51.402;6.778;2022-11-25T06:20:44;8.50;99.90
7784;DHT22;19359;51.402;6.778;2022-11-25T06:25:39;8.40;99.90
7784;DHT22;19359;51.402;6.778;2022-11-25T06:28:06;8.50;99.90
7784;DHT22;19359;51.402;6.778;2022-11-25T06:30:32;8.40;99.90
7784;DHT22;19359;51.402;6.778;2022-11-25T06:32:59;8.30;99.90
7784;DHT22;19359;51.402;6.778;2022-11-25T06:35:26;8.30;99.90
7784;DHT22;19359;51.402;6.778;2022-11-25T06:37:53;8.20;99.90
7784;DHT22;19359;51.402;6.778;2022-11-25T06:40:19;8.30;99.90
7784;DHT22;19359;51.402;6.778;2022-11-25T06:42:47;8.50;99.90
7784;DHT22;19359;51.402;6.778;2022-11-25T06:45:14;8.60;99.90
7784;DHT22;19359;51.402;6.778;2022-11-25T06:47:41;8.30;99.90
7784;DHT22;19359;51.402;6.778;2022-11-25T06:50:08;8.40;99.90
7784;DHT22;19359;51.402;6.778;2022-11-25T06:52:35;8.30;99.90
7784;DHT22;19359;51.402;6.778;2022-11-25T06:55:02;8.30;99.90
7784;DHT22;19359;51.402;6.778;2022-11-25T06:57:29;8.30;99.90
7784;DHT22;19359;51.402;6.778;2022-11-25T06:59:57;8.40;99.90
7784;DHT22;19359;51.402;6.778;2022-11-25T07:02:24;8.30;99.90
7784;DHT22;19359;51.402;6.778;2022-11-25T07:04:51;8.40;99.90
7784;DHT22;19359;51.402;6.778;2022-11-25T07:07:18;8.30;99.90
7784;DHT22;19359;51.402;6.778;2022-11-25T07:09:45;8.20;99.90
7784;DHT22;19359;51.402;6.778;2022-11-25T07:12:12;8.60;99.90
7784;DHT22;19359;51.402;6.778;2022-11-25T07:14:39;8.40;99.90
7784;DHT22;19359;51.402;6.778;2022-11-25T07:17:07;8.50;99.90
7784;DHT22;19359;51.402;6.778;2022-11-25T07:19:33;8.30;99.90
7784;DHT22;19359;51.402;6.778;2022-11-25T07:22:01;8.40;99.90
7784;DHT22;19359;51.402;6.778;2022-11-25T07:24:28;8.10;99.90
7784;DHT22;19359;51.402;6.778;2022-11-25T07:26:54;8.20;99.90
7784;DHT22;19359;51.402;6.778;2022-11-25T07:29:21;8.00;99.90
7784;DHT22;19359;51.402;6.778;2022-11-25T07:31:49;8.00;99.90
7784;DHT22;19359;51.402;6.778;2022-11-25T07:34:19;8.00;99.90
7784;DHT22;19359;51.402;6.778;2022-11-25T07:36:47;8.10;99.90
7784;DHT22;19359;51.402;6.778;2022-11-25T07:39:16;8.70;99.90
7784;DHT22;19359;51.402;6.778;2022-11-25T07:41:43;8.20;99.90
7784;DHT22;19359;51.402;6.778;2022-11-25T07:44:12;8.00;99.90
7784;DHT22;19359;51.402;6.778;2022-11-25T07:46:41;7.80;99.90
7784;DHT22;19359;51.402;6.778;2022-11-25T07:49:11;7.80;99.90
7784;DHT22;19359;51.402;6.778;2022-11-25T07:51:40;7.90;99.90
7784;DHT22;19359;51.402;6.778;2022-11-25T07:54:09;8.40;99.90
7784;DHT22;19359;51.402;6.778;2022-11-25T07:56:38;8.10;99.90
7784;DHT22;19359;51.402;6.778;2022-11-25T07:59:06;7.90;99.90
7784;DHT22;19359;51.402;6.778;2022-11-25T08:01:33;8.10;99.90
7784;DHT22;19359;51.402;6.778;2022-11-25T08:04:00;8.20;99.90
7784;DHT22;19359;51.402;6.778;2022-11-25T08:06:28;8.10;99.90
7784;DHT22;19359;51.402;6.778;2022-11-25T08:08:57;7.90;99.90
7784;DHT22;19359;51.402;6.778;2022-11-25T08:11:26;8.20;99.90
7784;DHT22;19359;51.402;6.778;2022-11-25T08:13:54;8.20;99.90
7784;DHT22;19359;51.402;6.778;2022-11-25T08:16:22;8.20;99.90
7784;DHT22;19359;51.402;6.778;2022-11-25T08:18:50;8.10;99.90
7784;DHT22;19359;51.402;6.778;2022-11-25T08:21:17;8.00;99.90
7784;DHT22;19359;51.402;6.778;2022-11-25T08:23:45;8.10;99.90
7784;DHT22;19359;51.402;6.778;2022-11-25T08:26:17;8.10;99.90
7784;DHT22;19359;51.402;6.778;2022-11-25T08:28:44;8.10;99.90
7784;DHT22;19359;51.402;6.778;2022-11-25T08:31:14;8.00;99.90
7784;DHT22;19359;51.402;6.778;2022-11-25T08:33:43;8.20;99.90
7784;DHT22;19359;51.402;6.778;2022-11-25T08:36:10;8.10;99.90
7784;DHT22;19359;51.402;6.778;2022-11-25T08:38:38;8.10;99.90
7784;DHT22;19359;51.402;6.778;2022-11-25T08:41:09;8.10;99.90
7784;DHT22;19359;51.402;6.778;2022-11-25T08:43:37;8.20;99.90
7784;DHT22;19359;51.402;6.778;2022-11-25T08:46:07;8.00;99.90
7784;DHT22;19359;51.402;6.778;2022-11-25T08:48:34;8.30;99.90
7784;DHT22;19359;51.402;6.778;2022-11-25T08:51:01;8.10;99.90
7784;DHT22;19359;51.402;6.778;2022-11-25T08:53:28;8.30;99.90
7784;DHT22;19359;51.402;6.778;2022-11-25T08:55:54;8.20;99.90
7784;DHT22;19359;51.402;6.778;2022-11-25T08:58:21;8.10;99.90
7784;DHT22;19359;51.402;6.778;2022-11-25T09:00:49;8.10;99.90
7784;DHT22;19359;51.402;6.778;2022-11-25T09:03:16;8.20;99.90
7784;DHT22;19359;51.402;6.778;2022-11-25T09:05:43;8.50;99.90
7784;DHT22;19359;51.402;6.778;2022-11-25T09:08:10;8.40;99.90
7784;DHT22;19359;51.402;6.778;2022-11-25T09:10:38;8.40;99.90
7784;DHT22;19359;51.402;6.778;2022-11-25T09:13:05;8.70;99.90
7784;DHT22;19359;51.402;6.778;2022-11-25T09:15:32;8.70;99.90
7784;DHT22;19359;51.402;6.778;2022-11-25T09:18:01;8.70;99.90
7784;DHT22;19359;51.402;6.778;2022-11-25T09:20:28;8.60;99.90
7784;DHT22;19359;51.402;6.778;2022-11-25T09:22:57;8.80;99.90
7784;DHT22;19359;51.402;6.778;2022-11-25T09:25:24;9.20;99.90
7784;DHT22;19359;51.402;6.778;2022-11-25T09:27:52;9.00;99.90
7784;DHT22;19359;51.402;6.778;2022-11-25T09:30:18;9.50;99.90
7784;DHT22;19359;51.402;6.778;2022-11-25T09:32:48;9.20;99.90
7784;DHT22;19359;51.402;6.778;2022-11-25T09:35:17;9.30;99.90
7784;DHT22;19359;51.402;6.778;2022-11-25T09:37:44;9.40;99.90
7784;DHT22;19359;51.402;6.778;2022-11-25T09:40:16;9.70;99.90
7784;DHT22;19359;51.402;6.778;2022-11-25T09:42:48;9.60;99.90
7784;DHT22;19359;51.402;6.778;2022-11-25T09:45:42;9.30;99.90
7784;DHT22;19359;51.402;6.778;2022-11-25T09:48:57;9.60;99.90
7784;DHT22;19359;51.402;6.778;2022-11-25T09:51:31;10.00;99.90
7784;DHT22;19359;51.402;6.778;2022-11-25T09:54:06;9.60;99.90
7784;DHT22;19359;51.402;6.778;2022-11-25T09:56:37;9.80;99.90
7784;DHT22;19359;51.402;6.778;2022-11-25T09:59:10;9.80;99.90
7784;DHT22;19359;51.402;6.778;2022-11-25T10:01:45;9.60;99.90
7784;DHT22;19359;51.402;6.778;2022-11-25T10:04:18;9.70;99.90
7784;DHT22;19359;51.402;6.778;2022-11-25T10:06:51;9.60;99.90
7784;DHT22;19359;51.402;6.778;2022-11-25T10:09:23;9.80;99.90
7784;DHT22;19359;51.402;6.778;2022-11-25T10:11:53;9.90;99.90
7784;DHT22;19359;51.402;6.778;2022-11-25T10:14:32;10.00;99.90
7784;DHT22;19359;51.402;6.778;2022-11-25T10:17:06;10.10;99.90
7784;DHT22;19359;51.402;6.778;2022-11-25T10:19:45;10.00;99.90
7784;DHT22;19359;51.402;6.778;2022-11-25T10:22:22;10.10;99.90
7784;DHT22;19359;51.402;6.778;2022-11-25T10:24:51;10.20;99.90
7784;DHT22;19359;51.402;6.778;2022-11-25T10:27:23;10.20;99.90
7784;DHT22;19359;51.402;6.778;2022-11-25T10:29:59;10.30;99.90
7784;DHT22;19359;51.402;6.778;2022-11-25T10:32:32;10.30;99.90
7784;DHT22;19359;51.402;6.778;2022-11-25T10:35:07;10.30;99.90
7784;DHT22;19359;51.402;6.778;2022-11-25T10:37:40;10.40;99.90
7784;DHT22;19359;51.402;6.778;2022-11-25T10:40:13;10.50;99.90
7784;DHT22;19359;51.402;6.778;2022-11-25T10:42:40;10.50;99.90
7784;DHT22;19359;51.402;6.778;2022-11-25T10:45:08;10.80;99.90
7784;DHT22;19359;51.402;6.778;2022-11-25T10:47:40;10.50;99.90
7784;DHT22;19359;51.402;6.778;2022-11-25T10:50:15;10.50;99.90
7784;DHT22;19359;51.402;6.778;2022-11-25T10:52:49;10.50;99.90
7784;DHT22;19359;51.402;6.778;2022-11-25T10:55:18;10.60;20.60
7784;DHT22;19359;51.402;6.778;2022-11-25T11:00:31;10.70;1.00
7784;DHT22;19359;51.402;6.778;2022-11-25T11:03:00;10.90;1.00
7784;DHT22;19359;51.402;6.778;2022-11-25T11:05:28;10.70;1.00
7784;DHT22;19359;51.402;6.778;2022-11-25T11:08:16;11.00;1.00
7784;DHT22;19359;51.402;6.778;2022-11-25T11:10:44;10.90;1.00
7784;DHT22;19359;51.402;6.778;2022-11-25T11:13:23;10.80;1.00
7784;DHT22;19359;51.402;6.778;2022-11-25T11:15:52;11.00;1.00
7784;DHT22;19359;51.402;6.778;2022-11-25T11:18:23;11.00;1.00
7784;DHT22;19359;51.402;6.778;2022-11-25T11:20:51;10.70;1.00
7784;DHT22;19359;51.402;6.778;2022-11-25T11:23:20;10.60;1.00
7784;DHT22;19359;51.402;6.778;2022-11-25T11:25:58;10.90;1.00
7784;DHT22;19359;51.402;6.778;2022-11-25T11:28:36;10.80;1.00
7784;DHT22;19359;51.402;6.778;2022-11-25T11:31:06;11.10;1.00
7784;DHT22;19359;51.402;6.778;2022-11-25T11:33:36;10.90;1.00
7784;DHT22;19359;51.402;6.778;2022-11-25T11:36:17;11.40;1.00
7784;DHT22;19359;51.402;6.778;2022-11-25T11:38:52;11.00;1.00
7784;DHT22;19359;51.402;6.778;2022-11-25T11:41:28;11.00;1.00
7784;DHT22;19359;51.402;6.778;2022-11-25T11:44:05;11.30;1.00
7784;DHT22;19359;51.402;6.778;2022-11-25T11:46:42;11.10;1.00
7784;DHT22;19359;51.402;6.778;2022-11-25T11:49:30;11.30;1.00
7784;DHT22;19359;51.402;6.778;2022-11-25T11:52:08;11.20;1.00
7784;DHT22;19359;51.402;6.778;2022-11-25T11:54:43;11.40;1.00
7784;DHT22;19359;51.402;6.778;2022-11-25T11:57:19;11.40;1.00
7784;DHT22;19359;51.402;6.778;2022-11-25T11:59:52;11.40;1.00
7784;DHT22;19359;51.402;6.778;2022-11-25T12:02:30;11.50;1.00
7784;DHT22;19359;51.402;6.778;2022-11-25T12:05:04;11.50;1.00
7784;DHT22;19359;51.402;6.778;2022-11-25T12:07:35;11.60;1.00
7784;DHT22;19359;51.402;6.778;2022-11-25T12:10:09;11.60;1.00
7784;DHT22;19359;51.402;6.778;2022-11-25T12:12:47;11.50;1.00
7784;DHT22;19359;51.402;6.778;2022-11-25T12:15:16;11.60;1.00
7784;DHT22;19359;51.402;6.778;2022-11-25T12:17:47;11.70;1.00
7784;DHT22;19359;51.402;6.778;2022-11-25T12:20:17;11.70;1.00
7784;DHT22;19359;51.402;6.778;2022-11-25T12:22:50;11.90;1.00
7784;DHT22;19359;51.402;6.778;2022-11-25T12:25:22;11.60;1.00
7784;DHT22;19359;51.402;6.778;2022-11-25T12:27:53;11.80;1.00
7784;DHT22;19359;51.402;6.778;2022-11-25T12:30:25;11.90;1.00
7784;DHT22;19359;51.402;6.778;2022-11-25T12:33:00;12.00;1.00
7784;DHT22;19359;51.402;6.778;2022-11-25T12:35:42;12.00;1.00
7784;DHT22;19359;51.402;6.778;2022-11-25T12:38:18;12.00;1.00
7784;DHT22;19359;51.402;6.778;2022-11-25T12:40:54;12.10;1.00
7784;DHT22;19359;51.402;6.778;2022-11-25T12:43:31;11.90;1.00
7784;DHT22;19359;51.402;6.778;2022-11-25T12:46:06;12.10;1.00
7784;DHT22;19359;51.402;6.778;2022-11-25T12:48:40;11.90;1.00
7784;DHT22;19359;51.402;6.778;2022-11-25T12:51:15;11.90;1.00
7784;DHT22;19359;51.402;6.778;2022-11-25T12:53:50;11.80;1.00
7784;DHT22;19359;51.402;6.778;2022-11-25T12:56:25;11.70;1.00
7784;DHT22;19359;51.402;6.778;2022-11-25T12:59:04;11.70;1.00
7784;DHT22;19359;51.402;6.778;2022-11-25T13:01:48;11.80;1.00
7784;DHT22;19359;51.402;6.778;2022-11-25T13:04:47;11.70;1.00
7784;DHT22;19359;51.402;6.778;2022-11-25T13:07:26;11.60;1.00
7784;DHT22;19359;51.402;6.778;2022-11-25T13:12:53;11.50;1.00
7784;DHT22;19359;51.402;6.778;2022-11-25T13:15:25;11.50;1.00
7784;DHT22;19359;51.402;6.778;2022-11-25T13:17:56;11.50;1.00
7784;DHT22;19359;51.402;6.778;2022-11-25T13:20:43;11.60;1.00
7784;DHT22;19359;51.402;6.778;2022-11-25T13:23:25;11.60;1.00
7784;DHT22;19359;51.402;6.778;2022-11-25T13:28:37;11.80;1.00
7784;DHT22;19359;51.402;6.778;2022-11-25T13:31:21;11.90;1.00
7784;DHT22;19359;51.402;6.778;2022-11-25T13:34:15;12.00;1.00
7784;DHT22;19359;51.402;6.778;2022-11-25T13:36:49;12.00;1.00
7784;DHT22;19359;51.402;6.778;2022-11-25T13:39:17;11.90;1.00
7784;DHT22;19359;51.402;6.778;2022-11-25T13:41:47;11.90;1.00
7784;DHT22;19359;51.402;6.778;2022-11-25T13:44:22;12.00;1.00
7784;DHT22;19359;51.402;6.778;2022-11-25T13:46:53;11.80;1.00
7784;DHT22;19359;51.402;6.778;2022-11-25T13:49:33;11.80;1.00
7784;DHT22;19359;51.402;6.778;2022-11-25T13:52:05;12.00;1.00
7784;DHT22;19359;51.402;6.778;2022-11-25T13:54:35;11.70;1.00
7784;DHT22;19359;51.402;6.778;2022-11-25T13:57:25;11.70;1.00
7784;DHT22;19359;51.402;6.778;2022-11-25T13:59:56;11.70;1.00
7784;DHT22;19359;51.402;6.778;2022-11-25T14:02:39;11.60;1.00
7784;DHT22;19359;51.402;6.778;2022-11-25T14:05:47;11.60;1.00
7784;DHT22;19359;51.402;6.778;2022-11-25T14:08:29;11.60;1.00
7784;DHT22;19359;51.402;6.778;2022-11-25T14:11:18;11.60;1.00
7784;DHT22;19359;51.402;6.778;2022-11-25T14:14:23;11.60;1.00
7784;DHT22;19359;51.402;6.778;2022-11-25T14:17:04;11.60;1.00
7784;DHT22;19359;51.402;6.778;2022-11-25T14:19:50;11.60;1.00
7784;DHT22;19359;51.402;6.778;2022-11-25T14:22:31;11.50;1.00
7784;DHT22;19359;51.402;6.778;2022-11-25T14:25:13;11.50;1.00
7784;DHT22;19359;51.402;6.778;2022-11-25T14:27:45;11.50;1.00
7784;DHT22;19359;51.402;6.778;2022-11-25T14:30:14;11.50;1.00
7784;DHT22;19359;51.402;6.778;2022-11-25T14:32:46;11.40;1.00
7784;DHT22;19359;51.402;6.778;2022-11-25T14:35:19;11.40;1.00
7784;DHT22;19359;51.402;6.778;2022-11-25T14:37:49;11.40;1.00
7784;DHT22;19359;51.402;6.778;2022-11-25T14:40:20;11.40;1.00
7784;DHT22;19359;51.402;6.778;2022-11-25T14:42:50;11.40;1.00
7784;DHT22;19359;51.402;6.778;2022-11-25T14:45:23;11.40;1.00
7784;DHT22;19359;51.402;6.778;2022-11-25T14:47:52;11.30;1.00
7784;DHT22;19359;51.402;6.778;2022-11-25T14:50:19;11.90;1.00
7784;DHT22;19359;51.402;6.778;2022-11-25T14:52:46;11.30;1.00
7784;DHT22;19359;51.402;6.778;2022-11-25T14:55:22;11.30;1.00
7784;DHT22;19359;51.402;6.778;2022-11-25T14:57:51;11.30;1.00
7784;DHT22;19359;51.402;6.778;2022-11-25T15:00:18;11.30;1.00
7784;DHT22;19359;51.402;6.778;2022-11-25T15:02:54;11.40;1.00
7784;DHT22;19359;51.402;6.778;2022-11-25T15:05:24;11.20;1.00
7784;DHT22;19359;51.402;6.778;2022-11-25T15:07:58;10.90;1.00
7784;DHT22;19359;51.402;6.778;2022-11-25T15:10:35;11.10;1.00
7784;DHT22;19359;51.402;6.778;2022-11-25T15:13:10;11.20;1.00
7784;DHT22;19359;51.402;6.778;2022-11-25T15:15:38;11.10;1.00
7784;DHT22;19359;51.402;6.778;2022-11-25T15:18:09;11.10;1.00
7784;DHT22;19359;51.402;6.778;2022-11-25T15:20:45;11.10;1.00
7784;DHT22;19359;51.402;6.778;2022-11-25T15:23:18;11.10;1.00
7784;DHT22;19359;51.402;6.778;2022-11-25T15:25:49;11.10;1.00
7784;DHT22;19359;51.402;6.778;2022-11-25T15:28:16;11.70;1.00
7784;DHT22;19359;51.402;6.778;2022-11-25T15:30:54;12.20;1.00
7784;DHT22;19359;51.402;6.778;2022-11-25T15:33:22;11.80;1.00
7784;DHT22;19359;51.402;6.778;2022-11-25T15:35:50;11.10;1.00
7784;DHT22;19359;51.402;6.778;2022-11-25T15:38:17;11.10;1.00
7784;DHT22;19359;51.402;6.778;2022-11-25T15:40:54;11.10;1.00
7784;DHT22;19359;51.402;6.778;2022-11-25T15:43:23;11.20;1.00
7784;DHT22;19359;51.402;6.778;2022-11-25T15:45:53;11.00;1.00
7784;DHT22;19359;51.402;6.778;2022-11-25T15:48:26;11.10;1.00
7784;DHT22;19359;51.402;6.778;2022-11-25T15:50:58;11.00;1.00
7784;DHT22;19359;51.402;6.778;2022-11-25T15:53:27;11.20;1.00
7784;DHT22;19359;51.402;6.778;2022-11-25T15:55:58;11.00;1.00
7784;DHT22;19359;51.402;6.778;2022-11-25T15:58:26;11.00;1.00
7784;DHT22;19359;51.402;6.778;2022-11-25T16:01:00;11.00;1.00
7784;DHT22;19359;51.402;6.778;2022-11-25T16:03:29;11.10;1.00
7784;DHT22;19359;51.402;6.778;2022-11-25T16:05:58;11.00;1.00
7784;DHT22;19359;51.402;6.778;2022-11-25T16:08:31;10.90;1.00
7784;DHT22;19359;51.402;6.778;2022-11-25T16:11:09;11.00;1.00
7784;DHT22;19359;51.402;6.778;2022-11-25T16:13:37;11.00;1.00
7784;DHT22;19359;51.402;6.778;2022-11-25T16:16:12;10.80;1.00
7784;DHT22;19359;51.402;6.778;2022-11-25T16:18:43;10.70;1.00
7784;DHT22;19359;51.402;6.778;2022-11-25T16:21:13;10.80;1.00
7784;DHT22;19359;51.402;6.778;2022-11-25T16:23:43;10.60;1.00
7784;DHT22;19359;51.402;6.778;2022-11-25T16:26:15;10.60;1.00
7784;DHT22;19359;51.402;6.778;2022-11-25T16:28:50;10.70;1.00
7784;DHT22;19359;51.402;6.778;2022-11-25T16:31:18;10.70;1.00
7784;DHT22;19359;51.402;6.778;2022-11-25T16:33:46;10.60;1.00
7784;DHT22;19359;51.402;6.778;2022-11-25T16:36:13;10.80;1.00
7784;DHT22;19359;51.402;6.778;2022-11-25T16:41:09;10.90;1.00
7784;DHT22;19359;51.402;6.778;2022-11-25T16:43:37;10.90;1.00
7784;DHT22;19359;51.402;6.778;2022-11-25T16:46:05;10.80;1.00
7784;DHT22;19359;51.402;6.778;2022-11-25T16:48:32;10.90;1.00
7784;DHT22;19359;51.402;6.778;2022-11-25T16:51:00;10.70;1.00
7784;DHT22;19359;51.402;6.778;2022-11-25T16:53:27;10.70;1.00